sensor_id;sensor_type;location;lat;lon;timestamp;temperature;humidity
52899;DHT22;38763;53.096;6.062;2022-07-10T00:00:13;14.30;99.90
52899;DHT22;38763;53.096;6.062;2022-07-10T00:02:40;14.30;99.90
52899;DHT22;38763;53.096;6.062;2022-07-10T00:05:07;14.30;99.90
52899;DHT22;38763;53.096;6.062;2022-07-10T00:07:33;14.30;99.90
52899;DHT22;38763;53.096;6.062;2022-07-10T00:09:59;14.20;99.90
52899;DHT22;38763;53.096;6.062;2022-07-10T00:12:25;14.20;99.90
52899;DHT22;38763;53.096;6.062;2022-07-10T00:14:51;14.20;99.90
52899;DHT22;38763;53.096;6.062;2022-07-10T00:17:17;14.20;99.90
52899;DHT22;38763;53.096;6.062;2022-07-10T00:19:43;14.10;99.90
52899;DHT22;38763;53.096;6.062;2022-07-10T00:22:08;14.20;99.90
52899;DHT22;38763;53.096;6.062;2022-07-10T00:24:34;14.20;99.90
52899;DHT22;38763;53.096;6.062;2022-07-10T00:27:00;14.10;99.90
52899;DHT22;38763;53.096;6.062;2022-07-10T00:29:25;14.10;99.90
52899;DHT22;38763;53.096;6.062;2022-07-10T00:31:51;14.10;99.90
52899;DHT22;38763;53.096;6.062;2022-07-10T00:34:17;14.10;99.90
52899;DHT22;38763;53.096;6.062;2022-07-10T00:36:42;14.10;99.90
52899;DHT22;38763;53.096;6.062;2022-07-10T00:39:09;14.10;99.90
52899;DHT22;38763;53.096;6.062;2022-07-10T00:41:35;14.00;99.90
52899;DHT22;38763;53.096;6.062;2022-07-10T00:44:02;14.10;99.90
52899;DHT22;38763;53.096;6.062;2022-07-10T00:46:29;14.00;99.90
52899;DHT22;38763;53.096;6.062;2022-07-10T00:48:55;14.00;99.90
52899;DHT22;38763;53.096;6.062;2022-07-10T00:51:24;13.90;99.90
52899;DHT22;38763;53.096;6.062;2022-07-10T00:53:51;13.90;99.90
52899;DHT22;38763;53.096;6.062;2022-07-10T00:56:19;13.90;99.90
52899;DHT22;38763;53.096;6.062;2022-07-10T00:58:49;14.00;99.90
52899;DHT22;38763;53.096;6.062;2022-07-10T01:01:15;14.00;99.90
52899;DHT22;38763;53.096;6.062;2022-07-10T01:03:42;14.00;99.90
52899;DHT22;38763;53.096;6.062;2022-07-10T01:06:09;14.00;99.90
52899;DHT22;38763;53.096;6.062;2022-07-10T01:08:35;14.10;99.90
52899;DHT22;38763;53.096;6.062;2022-07-10T01:11:01;14.00;99.90
52899;DHT22;38763;53.096;6.062;2022-07-10T01:13:27;13.90;99.90
52899;DHT22;38763;53.096;6.062;2022-07-10T01:15:53;14.00;99.90
52899;DHT22;38763;53.096;6.062;2022-07-10T01:18:19;14.00;99.90
52899;DHT22;38763;53.096;6.062;2022-07-10T01:20:45;14.00;99.90
52899;DHT22;38763;53.096;6.062;2022-07-10T01:23:11;13.90;99.90
52899;DHT22;38763;53.096;6.062;2022-07-10T01:25:37;13.90;99.90
52899;DHT22;38763;53.096;6.062;2022-07-10T01:28:03;13.90;99.90
52899;DHT22;38763;53.096;6.062;2022-07-10T01:30:28;13.90;99.90
52899;DHT22;38763;53.096;6.062;2022-07-10T01:32:54;13.90;99.90
52899;DHT22;38763;53.096;6.062;2022-07-10T01:35:20;13.90;99.90
52899;DHT22;38763;53.096;6.062;2022-07-10T01:37:46;13.90;99.90
52899;DHT22;38763;53.096;6.062;2022-07-10T01:40:11;14.00;99.90
52899;DHT22;38763;53.096;6.062;2022-07-10T01:42:38;13.90;99.90
52899;DHT22;38763;53.096;6.062;2022-07-10T01:45:06;14.00;99.90
52899;DHT22;38763;53.096;6.062;2022-07-10T01:47:31;14.00;99.90
52899;DHT22;38763;53.096;6.062;2022-07-10T01:49:57;14.00;99.90
52899;DHT22;38763;53.096;6.062;2022-07-10T01:52:22;13.90;99.90
52899;DHT22;38763;53.096;6.062;2022-07-10T01:54:48;13.90;99.90
52899;DHT22;38763;53.096;6.062;2022-07-10T01:57:14;13.90;99.90
52899;DHT22;38763;53.096;6.062;2022-07-10T01:59:40;13.80;99.90
52899;DHT22;38763;53.096;6.062;2022-07-10T02:02:07;13.70;99.90
52899;DHT22;38763;53.096;6.062;2022-07-10T02:04:33;13.70;99.90
52899;DHT22;38763;53.096;6.062;2022-07-10T02:07:08;13.60;99.90
52899;DHT22;38763;53.096;6.062;2022-07-10T02:09:34;13.60;99.90
52899;DHT22;38763;53.096;6.062;2022-07-10T02:12:00;13.60;99.90
52899;DHT22;38763;53.096;6.062;2022-07-10T02:14:26;13.60;99.90
52899;DHT22;38763;53.096;6.062;2022-07-10T02:16:52;13.60;99.90
52899;DHT22;38763;53.096;6.062;2022-07-10T02:19:17;13.60;99.90
52899;DHT22;38763;53.096;6.062;2022-07-10T02:21:43;13.60;99.90
52899;DHT22;38763;53.096;6.062;2022-07-10T02:24:09;13.70;99.90
52899;DHT22;38763;53.096;6.062;2022-07-10T02:26:34;13.70;99.90
52899;DHT22;38763;53.096;6.062;2022-07-10T02:29:00;13.70;99.90
52899;DHT22;38763;53.096;6.062;2022-07-10T02:31:25;13.70;99.90
52899;DHT22;38763;53.096;6.062;2022-07-10T02:33:51;13.80;99.90
52899;DHT22;38763;53.096;6.062;2022-07-10T02:36:17;13.80;99.90
52899;DHT22;38763;53.096;6.062;2022-07-10T02:38:42;13.90;99.90
52899;DHT22;38763;53.096;6.062;2022-07-10T02:41:08;13.90;99.90
52899;DHT22;38763;53.096;6.062;2022-07-10T02:43:33;13.90;99.90
52899;DHT22;38763;53.096;6.062;2022-07-10T02:45:59;13.90;99.90
52899;DHT22;38763;53.096;6.062;2022-07-10T02:48:25;14.00;99.90
52899;DHT22;38763;53.096;6.062;2022-07-10T02:50:50;14.00;99.90
52899;DHT22;38763;53.096;6.062;2022-07-10T02:53:16;14.00;99.90
52899;DHT22;38763;53.096;6.062;2022-07-10T02:55:41;14.10;99.90
52899;DHT22;38763;53.096;6.062;2022-07-10T02:58:07;14.10;99.90
52899;DHT22;38763;53.096;6.062;2022-07-10T03:00:35;14.10;99.90
52899;DHT22;38763;53.096;6.062;2022-07-10T03:03:01;14.20;99.90
52899;DHT22;38763;53.096;6.062;2022-07-10T03:05:26;14.20;99.90
52899;DHT22;38763;53.096;6.062;2022-07-10T03:07:52;14.30;99.90
52899;DHT22;38763;53.096;6.062;2022-07-10T03:10:17;14.30;99.90
52899;DHT22;38763;53.096;6.062;2022-07-10T03:12:43;14.30;99.90
52899;DHT22;38763;53.096;6.062;2022-07-10T03:15:09;14.40;99.90
52899;DHT22;38763;53.096;6.062;2022-07-10T03:17:35;14.40;99.90
52899;DHT22;38763;53.096;6.062;2022-07-10T03:20:01;14.40;99.90
52899;DHT22;38763;53.096;6.062;2022-07-10T03:22:26;14.40;99.90
52899;DHT22;38763;53.096;6.062;2022-07-10T03:24:54;14.30;99.90
52899;DHT22;38763;53.096;6.062;2022-07-10T03:27:19;14.50;99.90
52899;DHT22;38763;53.096;6.062;2022-07-10T03:29:45;14.40;99.90
52899;DHT22;38763;53.096;6.062;2022-07-10T03:32:11;14.40;99.90
52899;DHT22;38763;53.096;6.062;2022-07-10T03:34:37;14.40;99.90
52899;DHT22;38763;53.096;6.062;2022-07-10T03:37:03;14.50;99.90
52899;DHT22;38763;53.096;6.062;2022-07-10T03:39:29;14.50;99.90
52899;DHT22;38763;53.096;6.062;2022-07-10T03:41:55;14.50;99.90
52899;DHT22;38763;53.096;6.062;2022-07-10T03:44:20;14.50;99.90
52899;DHT22;38763;53.096;6.062;2022-07-10T03:46:46;14.50;99.90
52899;DHT22;38763;53.096;6.062;2022-07-10T03:49:11;14.60;99.90
52899;DHT22;38763;53.096;6.062;2022-07-10T03:51:37;14.60;99.90
52899;DHT22;38763;53.096;6.062;2022-07-10T03:54:03;14.50;99.90
52899;DHT22;38763;53.096;6.062;2022-07-10T03:56:28;14.50;99.90
52899;DHT22;38763;53.096;6.062;2022-07-10T03:59:13;14.50;99.90
52899;DHT22;38763;53.096;6.062;2022-07-10T04:01:38;14.50;99.90
52899;DHT22;38763;53.096;6.062;2022-07-10T04:04:04;14.50;99.90
52899;DHT22;38763;53.096;6.062;2022-07-10T04:06:29;14.50;99.90
52899;DHT22;38763;53.096;6.062;2022-07-10T04:08:55;14.40;99.90
52899;DHT22;38763;53.096;6.062;2022-07-10T04:11:21;14.40;99.90
52899;DHT22;38763;53.096;6.062;2022-07-10T04:13:46;14.40;99.90
52899;DHT22;38763;53.096;6.062;2022-07-10T04:16:12;14.50;99.90
52899;DHT22;38763;53.096;6.062;2022-07-10T04:18:41;14.40;99.90
52899;DHT22;38763;53.096;6.062;2022-07-10T04:21:07;14.40;99.90
52899;DHT22;38763;53.096;6.062;2022-07-10T04:23:33;14.40;99.90
52899;DHT22;38763;53.096;6.062;2022-07-10T04:26:00;14.30;99.90
52899;DHT22;38763;53.096;6.062;2022-07-10T04:28:25;14.40;99.90
52899;DHT22;38763;53.096;6.062;2022-07-10T04:30:51;14.40;99.90
52899;DHT22;38763;53.096;6.062;2022-07-10T04:33:17;14.40;99.90
52899;DHT22;38763;53.096;6.062;2022-07-10T04:35:43;14.40;99.90
52899;DHT22;38763;53.096;6.062;2022-07-10T04:38:08;14.40;99.90
52899;DHT22;38763;53.096;6.062;2022-07-10T04:40:34;14.40;99.90
52899;DHT22;38763;53.096;6.062;2022-07-10T04:42:59;14.40;99.90
52899;DHT22;38763;53.096;6.062;2022-07-10T04:45:25;14.30;99.90
52899;DHT22;38763;53.096;6.062;2022-07-10T04:47:51;14.40;99.90
52899;DHT22;38763;53.096;6.062;2022-07-10T04:50:17;14.40;99.90
52899;DHT22;38763;53.096;6.062;2022-07-10T04:52:43;14.40;99.90
52899;DHT22;38763;53.096;6.062;2022-07-10T04:55:08;14.40;99.90
52899;DHT22;38763;53.096;6.062;2022-07-10T04:57:34;14.50;99.90
52899;DHT22;38763;53.096;6.062;2022-07-10T05:00:00;14.50;99.90
52899;DHT22;38763;53.096;6.062;2022-07-10T05:02:26;14.50;99.90
52899;DHT22;38763;53.096;6.062;2022-07-10T05:04:51;14.40;99.90
52899;DHT22;38763;53.096;6.062;2022-07-10T05:07:17;14.40;99.90
52899;DHT22;38763;53.096;6.062;2022-07-10T05:09:43;14.50;99.90
52899;DHT22;38763;53.096;6.062;2022-07-10T05:12:08;14.40;99.90
52899;DHT22;38763;53.096;6.062;2022-07-10T05:14:34;14.50;99.90
52899;DHT22;38763;53.096;6.062;2022-07-10T05:17:00;14.50;99.90
52899;DHT22;38763;53.096;6.062;2022-07-10T05:19:25;14.50;99.90
52899;DHT22;38763;53.096;6.062;2022-07-10T05:21:51;14.50;99.90
52899;DHT22;38763;53.096;6.062;2022-07-10T05:24:17;14.50;99.90
52899;DHT22;38763;53.096;6.062;2022-07-10T05:26:42;14.50;99.90
52899;DHT22;38763;53.096;6.062;2022-07-10T05:29:08;14.60;99.90
52899;DHT22;38763;53.096;6.062;2022-07-10T05:31:33;14.80;99.90
52899;DHT22;38763;53.096;6.062;2022-07-10T05:33:59;14.80;99.90
52899;DHT22;38763;53.096;6.062;2022-07-10T05:36:25;14.80;99.90
52899;DHT22;38763;53.096;6.062;2022-07-10T05:38:50;14.90;99.90
52899;DHT22;38763;53.096;6.062;2022-07-10T05:41:16;14.90;99.90
52899;DHT22;38763;53.096;6.062;2022-07-10T05:43:42;14.80;99.90
52899;DHT22;38763;53.096;6.062;2022-07-10T05:46:07;15.00;99.90
52899;DHT22;38763;53.096;6.062;2022-07-10T05:48:33;15.00;99.90
52899;DHT22;38763;53.096;6.062;2022-07-10T05:50:59;14.90;99.90
52899;DHT22;38763;53.096;6.062;2022-07-10T05:53:24;14.90;99.90
52899;DHT22;38763;53.096;6.062;2022-07-10T05:55:50;14.80;99.90
52899;DHT22;38763;53.096;6.062;2022-07-10T05:58:16;14.90;99.90
52899;DHT22;38763;53.096;6.062;2022-07-10T06:00:42;14.80;99.90
52899;DHT22;38763;53.096;6.062;2022-07-10T06:03:11;14.80;99.90
52899;DHT22;38763;53.096;6.062;2022-07-10T06:05:37;14.80;99.90
52899;DHT22;38763;53.096;6.062;2022-07-10T06:08:03;14.90;99.90
52899;DHT22;38763;53.096;6.062;2022-07-10T06:10:29;14.90;99.90
52899;DHT22;38763;53.096;6.062;2022-07-10T06:12:55;14.80;99.90
52899;DHT22;38763;53.096;6.062;2022-07-10T06:15:20;14.90;99.90
52899;DHT22;38763;53.096;6.062;2022-07-10T06:17:46;14.80;99.90
52899;DHT22;38763;53.096;6.062;2022-07-10T06:20:11;14.90;99.90
52899;DHT22;38763;53.096;6.062;2022-07-10T06:22:38;14.90;99.90
52899;DHT22;38763;53.096;6.062;2022-07-10T06:25:06;14.90;99.90
52899;DHT22;38763;53.096;6.062;2022-07-10T06:27:32;15.00;99.90
52899;DHT22;38763;53.096;6.062;2022-07-10T06:29:59;15.00;99.90
52899;DHT22;38763;53.096;6.062;2022-07-10T06:32:26;15.00;99.90
52899;DHT22;38763;53.096;6.062;2022-07-10T06:34:52;15.10;99.90
52899;DHT22;38763;53.096;6.062;2022-07-10T06:37:19;15.20;99.90
52899;DHT22;38763;53.096;6.062;2022-07-10T06:39:45;15.20;99.90
52899;DHT22;38763;53.096;6.062;2022-07-10T06:42:12;15.20;99.90
52899;DHT22;38763;53.096;6.062;2022-07-10T06:44:37;15.20;99.90
52899;DHT22;38763;53.096;6.062;2022-07-10T06:47:03;15.30;99.90
52899;DHT22;38763;53.096;6.062;2022-07-10T06:49:48;15.30;99.90
52899;DHT22;38763;53.096;6.062;2022-07-10T06:52:14;15.30;99.90
52899;DHT22;38763;53.096;6.062;2022-07-10T06:54:41;15.20;99.90
52899;DHT22;38763;53.096;6.062;2022-07-10T06:57:07;15.40;99.90
52899;DHT22;38763;53.096;6.062;2022-07-10T06:59:32;15.40;99.90
52899;DHT22;38763;53.096;6.062;2022-07-10T07:01:59;15.50;99.90
52899;DHT22;38763;53.096;6.062;2022-07-10T07:04:24;15.50;99.90
52899;DHT22;38763;53.096;6.062;2022-07-10T07:06:50;15.60;99.90
52899;DHT22;38763;53.096;6.062;2022-07-10T07:09:16;15.50;99.90
52899;DHT22;38763;53.096;6.062;2022-07-10T07:11:41;15.60;99.90
52899;DHT22;38763;53.096;6.062;2022-07-10T07:14:07;15.70;99.90
52899;DHT22;38763;53.096;6.062;2022-07-10T07:16:32;15.70;99.90
52899;DHT22;38763;53.096;6.062;2022-07-10T07:19:09;15.60;99.90
52899;DHT22;38763;53.096;6.062;2022-07-10T07:21:43;15.60;99.90
52899;DHT22;38763;53.096;6.062;2022-07-10T07:24:27;15.50;99.90
52899;DHT22;38763;53.096;6.062;2022-07-10T07:26:53;15.30;99.90
52899;DHT22;38763;53.096;6.062;2022-07-10T07:29:19;15.40;99.90
52899;DHT22;38763;53.096;6.062;2022-07-10T07:31:45;15.40;99.90
52899;DHT22;38763;53.096;6.062;2022-07-10T07:34:11;15.50;99.90
52899;DHT22;38763;53.096;6.062;2022-07-10T07:36:37;15.50;99.90
52899;DHT22;38763;53.096;6.062;2022-07-10T07:39:03;15.70;99.90
52899;DHT22;38763;53.096;6.062;2022-07-10T07:41:29;15.60;99.90
52899;DHT22;38763;53.096;6.062;2022-07-10T07:43:54;15.40;99.90
52899;DHT22;38763;53.096;6.062;2022-07-10T07:46:20;15.60;99.90
52899;DHT22;38763;53.096;6.062;2022-07-10T07:48:46;15.50;99.90
52899;DHT22;38763;53.096;6.062;2022-07-10T07:51:12;15.60;99.90
52899;DHT22;38763;53.096;6.062;2022-07-10T07:53:39;15.60;99.90
52899;DHT22;38763;53.096;6.062;2022-07-10T07:56:05;15.40;99.90
52899;DHT22;38763;53.096;6.062;2022-07-10T07:58:30;15.40;99.90
52899;DHT22;38763;53.096;6.062;2022-07-10T08:00:56;15.40;99.90
52899;DHT22;38763;53.096;6.062;2022-07-10T08:03:24;15.50;99.90
52899;DHT22;38763;53.096;6.062;2022-07-10T08:05:49;15.60;99.90
52899;DHT22;38763;53.096;6.062;2022-07-10T08:08:15;15.50;99.90
52899;DHT22;38763;53.096;6.062;2022-07-10T08:10:41;15.50;99.90
52899;DHT22;38763;53.096;6.062;2022-07-10T08:13:06;15.60;99.90
52899;DHT22;38763;53.096;6.062;2022-07-10T08:15:32;15.60;99.90
52899;DHT22;38763;53.096;6.062;2022-07-10T08:18:00;15.70;99.90
52899;DHT22;38763;53.096;6.062;2022-07-10T08:20:26;15.70;99.90
52899;DHT22;38763;53.096;6.062;2022-07-10T08:22:53;15.80;99.90
52899;DHT22;38763;53.096;6.062;2022-07-10T08:25:20;15.90;99.90
52899;DHT22;38763;53.096;6.062;2022-07-10T08:27:46;16.00;99.90
52899;DHT22;38763;53.096;6.062;2022-07-10T08:30:12;15.90;99.90
52899;DHT22;38763;53.096;6.062;2022-07-10T08:32:38;16.00;99.90
52899;DHT22;38763;53.096;6.062;2022-07-10T08:35:05;16.10;99.90
52899;DHT22;38763;53.096;6.062;2022-07-10T08:37:41;16.10;99.90
52899;DHT22;38763;53.096;6.062;2022-07-10T08:40:11;16.20;99.90
52899;DHT22;38763;53.096;6.062;2022-07-10T08:42:38;16.30;99.90
52899;DHT22;38763;53.096;6.062;2022-07-10T08:45:04;16.30;99.90
52899;DHT22;38763;53.096;6.062;2022-07-10T08:47:30;16.30;99.90
52899;DHT22;38763;53.096;6.062;2022-07-10T08:49:59;16.30;99.90
52899;DHT22;38763;53.096;6.062;2022-07-10T08:52:45;16.20;99.90
52899;DHT22;38763;53.096;6.062;2022-07-10T08:55:20;16.20;99.90
52899;DHT22;38763;53.096;6.062;2022-07-10T08:57:48;16.30;99.90
52899;DHT22;38763;53.096;6.062;2022-07-10T09:00:15;16.20;99.90
52899;DHT22;38763;53.096;6.062;2022-07-10T09:02:42;16.40;99.90
52899;DHT22;38763;53.096;6.062;2022-07-10T09:05:08;16.60;99.90
52899;DHT22;38763;53.096;6.062;2022-07-10T09:07:37;16.80;99.90
52899;DHT22;38763;53.096;6.062;2022-07-10T09:10:08;16.90;99.90
52899;DHT22;38763;53.096;6.062;2022-07-10T09:12:58;17.10;99.90
52899;DHT22;38763;53.096;6.062;2022-07-10T09:15:30;16.90;99.90
52899;DHT22;38763;53.096;6.062;2022-07-10T09:17:59;16.90;99.90
52899;DHT22;38763;53.096;6.062;2022-07-10T09:23:21;16.70;99.90
52899;DHT22;38763;53.096;6.062;2022-07-10T09:25:49;16.60;99.90
52899;DHT22;38763;53.096;6.062;2022-07-10T09:28:22;16.50;99.90
52899;DHT22;38763;53.096;6.062;2022-07-10T09:30:49;16.60;99.90
52899;DHT22;38763;53.096;6.062;2022-07-10T09:33:22;16.60;99.90
52899;DHT22;38763;53.096;6.062;2022-07-10T09:35:57;16.60;99.90
52899;DHT22;38763;53.096;6.062;2022-07-10T09:41:13;16.60;99.90
52899;DHT22;38763;53.096;6.062;2022-07-10T09:43:47;16.70;99.90
52899;DHT22;38763;53.096;6.062;2022-07-10T09:46:13;16.60;99.90
52899;DHT22;38763;53.096;6.062;2022-07-10T09:48:39;16.70;99.90
52899;DHT22;38763;53.096;6.062;2022-07-10T09:51:07;16.80;99.90
52899;DHT22;38763;53.096;6.062;2022-07-10T09:53:43;16.80;99.90
52899;DHT22;38763;53.096;6.062;2022-07-10T09:56:11;17.00;99.90
52899;DHT22;38763;53.096;6.062;2022-07-10T09:58:37;17.20;99.90
52899;DHT22;38763;53.096;6.062;2022-07-10T10:01:05;17.30;99.90
52899;DHT22;38763;53.096;6.062;2022-07-10T10:03:35;17.40;99.90
52899;DHT22;38763;53.096;6.062;2022-07-10T10:06:10;17.40;99.90
52899;DHT22;38763;53.096;6.062;2022-07-10T10:09:05;17.20;99.90
52899;DHT22;38763;53.096;6.062;2022-07-10T10:11:35;17.30;99.90
52899;DHT22;38763;53.096;6.062;2022-07-10T10:14:02;17.20;99.90
52899;DHT22;38763;53.096;6.062;2022-07-10T10:16:29;17.20;99.90
52899;DHT22;38763;53.096;6.062;2022-07-10T10:18:55;17.20;99.90
52899;DHT22;38763;53.096;6.062;2022-07-10T10:21:40;17.30;99.90
52899;DHT22;38763;53.096;6.062;2022-07-10T10:24:06;17.40;99.90
52899;DHT22;38763;53.096;6.062;2022-07-10T10:26:33;17.60;99.90
52899;DHT22;38763;53.096;6.062;2022-07-10T10:29:01;17.80;99.90
52899;DHT22;38763;53.096;6.062;2022-07-10T10:31:29;17.70;99.90
52899;DHT22;38763;53.096;6.062;2022-07-10T10:33:56;17.80;99.90
52899;DHT22;38763;53.096;6.062;2022-07-10T10:39:11;17.60;99.90
52899;DHT22;38763;53.096;6.062;2022-07-10T10:41:46;17.50;99.90
52899;DHT22;38763;53.096;6.062;2022-07-10T10:49:19;17.30;99.90
52899;DHT22;38763;53.096;6.062;2022-07-10T10:52:11;17.40;99.90
52899;DHT22;38763;53.096;6.062;2022-07-10T10:59:58;17.30;99.90
52899;DHT22;38763;53.096;6.062;2022-07-10T11:02:25;17.30;99.90
52899;DHT22;38763;53.096;6.062;2022-07-10T11:08:00;17.10;99.90
52899;DHT22;38763;53.096;6.062;2022-07-10T11:10:36;17.10;99.90
52899;DHT22;38763;53.096;6.062;2022-07-10T11:13:12;17.00;99.90
52899;DHT22;38763;53.096;6.062;2022-07-10T11:15:39;16.90;99.90
52899;DHT22;38763;53.096;6.062;2022-07-10T11:18:06;16.90;99.90
52899;DHT22;38763;53.096;6.062;2022-07-10T11:20:37;17.00;99.90
52899;DHT22;38763;53.096;6.062;2022-07-10T11:25:52;17.10;99.90
52899;DHT22;38763;53.096;6.062;2022-07-10T11:28:55;17.20;99.90
52899;DHT22;38763;53.096;6.062;2022-07-10T11:31:26;17.30;99.90
52899;DHT22;38763;53.096;6.062;2022-07-10T11:33:54;17.20;99.90
52899;DHT22;38763;53.096;6.062;2022-07-10T11:36:26;17.30;99.90
52899;DHT22;38763;53.096;6.062;2022-07-10T11:38:58;17.30;99.90
52899;DHT22;38763;53.096;6.062;2022-07-10T11:41:25;17.30;99.90
52899;DHT22;38763;53.096;6.062;2022-07-10T11:43:51;17.60;99.90
52899;DHT22;38763;53.096;6.062;2022-07-10T11:46:18;17.60;99.90
52899;DHT22;38763;53.096;6.062;2022-07-10T11:48:44;17.60;99.90
52899;DHT22;38763;53.096;6.062;2022-07-10T11:56:20;17.60;99.90
52899;DHT22;38763;53.096;6.062;2022-07-10T11:58:56;17.60;99.90
52899;DHT22;38763;53.096;6.062;2022-07-10T12:01:21;17.70;99.90
52899;DHT22;38763;53.096;6.062;2022-07-10T12:03:58;17.80;99.90
52899;DHT22;38763;53.096;6.062;2022-07-10T12:06:25;17.90;99.90
52899;DHT22;38763;53.096;6.062;2022-07-10T12:08:51;17.90;99.90
52899;DHT22;38763;53.096;6.062;2022-07-10T12:11:18;17.90;99.90
52899;DHT22;38763;53.096;6.062;2022-07-10T12:13:45;18.00;99.90
52899;DHT22;38763;53.096;6.062;2022-07-10T12:16:11;17.90;99.90
52899;DHT22;38763;53.096;6.062;2022-07-10T12:18:37;18.00;99.90
52899;DHT22;38763;53.096;6.062;2022-07-10T12:21:03;17.80;99.90
52899;DHT22;38763;53.096;6.062;2022-07-10T12:23:29;18.00;99.90
52899;DHT22;38763;53.096;6.062;2022-07-10T12:25:55;18.20;99.90
52899;DHT22;38763;53.096;6.062;2022-07-10T12:28:22;18.30;99.90
52899;DHT22;38763;53.096;6.062;2022-07-10T12:30:49;18.30;99.90
52899;DHT22;38763;53.096;6.062;2022-07-10T12:33:22;18.50;99.90
52899;DHT22;38763;53.096;6.062;2022-07-10T12:35:58;18.60;99.90
52899;DHT22;38763;53.096;6.062;2022-07-10T12:38:30;18.50;99.90
52899;DHT22;38763;53.096;6.062;2022-07-10T12:41:09;18.60;99.90
52899;DHT22;38763;53.096;6.062;2022-07-10T12:43:36;18.80;99.90
52899;DHT22;38763;53.096;6.062;2022-07-10T12:46:16;18.90;99.90
52899;DHT22;38763;53.096;6.062;2022-07-10T12:49:06;19.00;99.90
52899;DHT22;38763;53.096;6.062;2022-07-10T12:51:34;19.20;99.90
52899;DHT22;38763;53.096;6.062;2022-07-10T12:54:00;19.30;99.90
52899;DHT22;38763;53.096;6.062;2022-07-10T12:56:36;19.40;99.90
52899;DHT22;38763;53.096;6.062;2022-07-10T12:59:11;19.40;99.90
52899;DHT22;38763;53.096;6.062;2022-07-10T13:01:44;19.40;99.90
52899;DHT22;38763;53.096;6.062;2022-07-10T13:04:10;19.20;99.90
52899;DHT22;38763;53.096;6.062;2022-07-10T13:06:37;19.20;99.90
52899;DHT22;38763;53.096;6.062;2022-07-10T13:09:18;19.30;99.90
52899;DHT22;38763;53.096;6.062;2022-07-10T13:11:44;19.40;99.90
52899;DHT22;38763;53.096;6.062;2022-07-10T13:14:09;19.40;99.90
52899;DHT22;38763;53.096;6.062;2022-07-10T13:16:35;19.50;99.90
52899;DHT22;38763;53.096;6.062;2022-07-10T13:19:00;19.50;99.90
52899;DHT22;38763;53.096;6.062;2022-07-10T13:21:26;19.50;99.90
52899;DHT22;38763;53.096;6.062;2022-07-10T13:23:52;19.70;99.90
52899;DHT22;38763;53.096;6.062;2022-07-10T13:26:17;19.70;99.90
52899;DHT22;38763;53.096;6.062;2022-07-10T13:28:43;19.70;99.90
52899;DHT22;38763;53.096;6.062;2022-07-10T13:31:09;19.80;99.90
52899;DHT22;38763;53.096;6.062;2022-07-10T13:33:35;19.80;99.90
52899;DHT22;38763;53.096;6.062;2022-07-10T13:36:02;19.80;99.90
52899;DHT22;38763;53.096;6.062;2022-07-10T13:38:28;19.90;99.90
52899;DHT22;38763;53.096;6.062;2022-07-10T13:40:53;19.90;99.90
52899;DHT22;38763;53.096;6.062;2022-07-10T13:43:19;19.90;99.90
52899;DHT22;38763;53.096;6.062;2022-07-10T13:45:52;20.10;99.90
52899;DHT22;38763;53.096;6.062;2022-07-10T13:48:18;20.20;99.90
52899;DHT22;38763;53.096;6.062;2022-07-10T13:50:45;20.30;99.90
52899;DHT22;38763;53.096;6.062;2022-07-10T13:53:16;20.40;99.90
52899;DHT22;38763;53.096;6.062;2022-07-10T13:55:42;20.30;99.90
52899;DHT22;38763;53.096;6.062;2022-07-10T13:58:08;20.30;99.90
52899;DHT22;38763;53.096;6.062;2022-07-10T14:00:34;20.30;99.90
52899;DHT22;38763;53.096;6.062;2022-07-10T14:03:01;20.50;99.90
52899;DHT22;38763;53.096;6.062;2022-07-10T14:05:27;20.60;99.90
52899;DHT22;38763;53.096;6.062;2022-07-10T14:07:53;20.50;99.90
52899;DHT22;38763;53.096;6.062;2022-07-10T14:10:18;20.50;99.90
52899;DHT22;38763;53.096;6.062;2022-07-10T14:12:44;20.50;99.90
52899;DHT22;38763;53.096;6.062;2022-07-10T14:15:10;20.70;99.90
52899;DHT22;38763;53.096;6.062;2022-07-10T14:17:35;20.50;99.90
52899;DHT22;38763;53.096;6.062;2022-07-10T14:20:01;20.40;99.90
52899;DHT22;38763;53.096;6.062;2022-07-10T14:22:27;20.60;99.90
52899;DHT22;38763;53.096;6.062;2022-07-10T14:24:55;20.70;99.90
52899;DHT22;38763;53.096;6.062;2022-07-10T14:27:21;20.60;99.90
52899;DHT22;38763;53.096;6.062;2022-07-10T14:29:48;20.50;99.90
52899;DHT22;38763;53.096;6.062;2022-07-10T14:32:14;20.40;99.90
52899;DHT22;38763;53.096;6.062;2022-07-10T14:34:40;20.60;99.90
52899;DHT22;38763;53.096;6.062;2022-07-10T14:37:05;20.60;99.90
52899;DHT22;38763;53.096;6.062;2022-07-10T14:39:31;20.70;99.90
52899;DHT22;38763;53.096;6.062;2022-07-10T14:41:56;20.60;99.90
52899;DHT22;38763;53.096;6.062;2022-07-10T14:44:22;20.60;99.90
52899;DHT22;38763;53.096;6.062;2022-07-10T14:46:47;20.70;99.90
52899;DHT22;38763;53.096;6.062;2022-07-10T14:49:14;20.70;99.90
52899;DHT22;38763;53.096;6.062;2022-07-10T14:51:39;20.90;99.90
52899;DHT22;38763;53.096;6.062;2022-07-10T14:54:05;20.70;99.90
52899;DHT22;38763;53.096;6.062;2022-07-10T14:56:30;20.80;99.90
52899;DHT22;38763;53.096;6.062;2022-07-10T14:58:56;21.00;99.90
52899;DHT22;38763;53.096;6.062;2022-07-10T15:01:22;21.00;99.90
52899;DHT22;38763;53.096;6.062;2022-07-10T15:03:48;21.10;99.90
52899;DHT22;38763;53.096;6.062;2022-07-10T15:06:13;21.10;99.90
52899;DHT22;38763;53.096;6.062;2022-07-10T15:08:39;21.00;99.90
52899;DHT22;38763;53.096;6.062;2022-07-10T15:11:04;21.00;99.90
52899;DHT22;38763;53.096;6.062;2022-07-10T15:13:32;20.70;99.90
52899;DHT22;38763;53.096;6.062;2022-07-10T15:15:58;20.70;99.90
52899;DHT22;38763;53.096;6.062;2022-07-10T15:18:24;20.70;99.90
52899;DHT22;38763;53.096;6.062;2022-07-10T15:20:50;20.70;99.90
52899;DHT22;38763;53.096;6.062;2022-07-10T15:23:15;20.70;99.90
52899;DHT22;38763;53.096;6.062;2022-07-10T15:25:41;20.50;99.90
52899;DHT22;38763;53.096;6.062;2022-07-10T15:28:08;20.40;99.90
52899;DHT22;38763;53.096;6.062;2022-07-10T15:30:35;20.40;99.90
52899;DHT22;38763;53.096;6.062;2022-07-10T15:33:02;20.40;99.90
52899;DHT22;38763;53.096;6.062;2022-07-10T15:35:28;20.50;99.90
52899;DHT22;38763;53.096;6.062;2022-07-10T15:37:54;20.40;99.90
52899;DHT22;38763;53.096;6.062;2022-07-10T15:40:20;20.30;99.90
52899;DHT22;38763;53.096;6.062;2022-07-10T15:42:45;20.20;99.90
52899;DHT22;38763;53.096;6.062;2022-07-10T15:45:11;20.40;99.90
52899;DHT22;38763;53.096;6.062;2022-07-10T15:47:37;20.40;99.90
52899;DHT22;38763;53.096;6.062;2022-07-10T15:50:03;20.50;99.90
52899;DHT22;38763;53.096;6.062;2022-07-10T15:52:29;20.60;99.90
52899;DHT22;38763;53.096;6.062;2022-07-10T15:54:55;20.50;99.90
52899;DHT22;38763;53.096;6.062;2022-07-10T15:57:21;20.50;99.90
52899;DHT22;38763;53.096;6.062;2022-07-10T15:59:46;20.50;99.90